createdAt,value
2023-08-29T00:00:10.891Z,99936.00
2023-08-29T00:02:42.686Z,99942.00
2023-08-29T00:05:10.526Z,99935.00
2023-08-29T00:07:37.990Z,99929.00
2023-08-29T00:10:05.092Z,99930.00
2023-08-29T00:12:33.228Z,99925.00
2023-08-29T00:15:01.091Z,99923.00
2023-08-29T00:17:27.831Z,99915.00
2023-08-29T00:19:55.811Z,99915.00
2023-08-29T00:22:22.466Z,99918.00
2023-08-29T00:24:49.551Z,99924.00
2023-08-29T00:27:16.416Z,99934.00
2023-08-29T00:29:44.108Z,99936.00
2023-08-29T00:32:13.522Z,99926.00
2023-08-29T00:34:40.114Z,99922.00
2023-08-29T00:37:06.856Z,99917.00
2023-08-29T00:39:34.011Z,99906.00
2023-08-29T00:42:01.309Z,99906.00
2023-08-29T00:44:27.999Z,99906.00
2023-08-29T00:46:54.635Z,99903.00
2023-08-29T00:49:24.413Z,99913.00
2023-08-29T00:51:51.368Z,99920.00
2023-08-29T00:54:19.643Z,99907.00
2023-08-29T00:56:47.529Z,99909.00
2023-08-29T00:59:14.979Z,99906.00
2023-08-29T01:01:41.779Z,99895.00
2023-08-29T01:04:10.648Z,99897.00
2023-08-29T01:06:38.788Z,99901.00
2023-08-29T01:09:09.906Z,99896.00
2023-08-29T01:11:49.442Z,99898.00
2023-08-29T01:14:37.338Z,99902.00
2023-08-29T01:17:09.330Z,99902.00
2023-08-29T01:19:40.921Z,99909.00
2023-08-29T01:22:30.406Z,99912.00
2023-08-29T01:25:21.263Z,99915.00
2023-08-29T01:27:48.648Z,99909.00
2023-08-29T01:30:16.115Z,99906.00
2023-08-29T01:32:43.017Z,99910.00
2023-08-29T01:35:13.851Z,99908.00
2023-08-29T01:37:40.444Z,99912.00
2023-08-29T01:40:07.648Z,99909.00
2023-08-29T01:42:37.293Z,99914.00
2023-08-29T01:45:05.806Z,99903.00
2023-08-29T01:47:32.539Z,99909.00
2023-08-29T01:50:00.723Z,99894.00
2023-08-29T01:52:27.284Z,99886.00
2023-08-29T01:54:53.897Z,99883.00
2023-08-29T01:57:20.855Z,99886.00
2023-08-29T01:59:48.226Z,99883.00
2023-08-29T02:02:15.177Z,99891.00
2023-08-29T02:04:42.367Z,99882.00
2023-08-29T02:07:08.971Z,99886.00
2023-08-29T02:09:35.555Z,99890.00
2023-08-29T02:12:02.580Z,99893.00
2023-08-29T02:14:29.151Z,99886.00
2023-08-29T02:16:55.717Z,99883.00
2023-08-29T02:19:22.443Z,99884.00
2023-08-29T02:21:49.020Z,99892.00
2023-08-29T02:24:15.567Z,99891.00
2023-08-29T02:26:42.131Z,99887.00
2023-08-29T02:29:08.725Z,99884.00
2023-08-29T02:31:35.896Z,99883.00
2023-08-29T02:34:02.463Z,99883.00
2023-08-29T02:36:29.089Z,99889.00
2023-08-29T02:38:55.649Z,99892.00
2023-08-29T02:41:22.211Z,99903.00
2023-08-29T02:43:48.780Z,99897.00
2023-08-29T02:46:15.423Z,99892.00
2023-08-29T02:48:42.037Z,99882.00
2023-08-29T02:51:08.592Z,99879.00
2023-08-29T02:53:35.138Z,99868.00
2023-08-29T02:56:01.696Z,99864.00
2023-08-29T02:58:28.668Z,99872.00
2023-08-29T03:00:58.199Z,99871.00
2023-08-29T03:03:25.087Z,99864.00
2023-08-29T03:05:58.736Z,99864.00
2023-08-29T03:08:26.639Z,99855.00
2023-08-29T03:10:54.089Z,99843.00
2023-08-29T03:13:20.964Z,99834.00
2023-08-29T03:15:48.892Z,99831.00
2023-08-29T03:18:15.706Z,99821.00
2023-08-29T03:20:43.123Z,99810.00
2023-08-29T03:23:11.329Z,99806.00
2023-08-29T03:25:38.954Z,99801.00
2023-08-29T03:28:06.339Z,99803.00
2023-08-29T03:30:33.146Z,99795.00
2023-08-29T03:32:59.821Z,99804.00
2023-08-29T03:35:26.493Z,99800.00
2023-08-29T03:37:53.062Z,99804.00
2023-08-29T03:40:19.604Z,99793.00
2023-08-29T03:42:46.165Z,99795.00
2023-08-29T03:45:15.760Z,99795.00
2023-08-29T03:47:42.443Z,99791.00
2023-08-29T03:50:09.285Z,99797.00
2023-08-29T03:52:38.475Z,99787.00
2023-08-29T03:55:05.666Z,99780.00
2023-08-29T03:57:32.260Z,99778.00
2023-08-29T04:00:00.514Z,99784.00
2023-08-29T04:02:27.070Z,99790.00
2023-08-29T04:04:53.952Z,99777.00
2023-08-29T04:07:21.078Z,99773.00
2023-08-29T04:09:47.657Z,99775.00
2023-08-29T04:12:14.246Z,99778.00
2023-08-29T04:14:40.906Z,99788.00
2023-08-29T04:17:07.520Z,99787.00
2023-08-29T04:19:34.929Z,99788.00
2023-08-29T04:22:01.957Z,99796.00
2023-08-29T04:24:29.677Z,99786.00
2023-08-29T04:26:56.336Z,99781.00
2023-08-29T04:29:22.900Z,99785.00
2023-08-29T04:31:50.097Z,99787.00
2023-08-29T04:34:16.698Z,99790.00
2023-08-29T04:36:43.294Z,99794.00
2023-08-29T04:39:10.480Z,99796.00
2023-08-29T04:41:37.211Z,99797.00
2023-08-29T04:44:03.927Z,99797.00
2023-08-29T04:46:30.484Z,99795.00
2023-08-29T04:48:57.354Z,99797.00
2023-08-29T04:51:24.222Z,99789.00
2023-08-29T04:53:50.800Z,99796.00
2023-08-29T04:56:17.389Z,99789.00
2023-08-29T04:58:43.966Z,99789.00
2023-08-29T05:01:10.639Z,99792.00
2023-08-29T05:03:37.267Z,99793.00
2023-08-29T05:06:04.124Z,99794.00
2023-08-29T05:08:35.729Z,99793.00
2023-08-29T05:11:03.582Z,99794.00
2023-08-29T05:13:30.108Z,99792.00
2023-08-29T05:15:56.743Z,99802.00
2023-08-29T05:18:23.291Z,99801.00
2023-08-29T05:20:49.846Z,99801.00
2023-08-29T05:23:16.449Z,99794.00
2023-08-29T05:25:43.735Z,99788.00
2023-08-29T05:28:11.563Z,99793.00
2023-08-29T05:30:38.271Z,99778.00
2023-08-29T05:33:05.020Z,99782.00
2023-08-29T05:35:31.675Z,99786.00
2023-08-29T05:37:58.264Z,99787.00
2023-08-29T05:40:24.931Z,99782.00
2023-08-29T05:42:51.482Z,99781.00
2023-08-29T05:45:18.212Z,99777.00
2023-08-29T05:47:44.796Z,99787.00
2023-08-29T05:50:11.396Z,99783.00
2023-08-29T05:52:38.679Z,99784.00
2023-08-29T05:55:05.915Z,99782.00
2023-08-29T05:57:32.455Z,99789.00
2023-08-29T05:59:59.047Z,99802.00
2023-08-29T06:02:25.739Z,99812.00
2023-08-29T06:04:52.322Z,99813.00
2023-08-29T06:07:18.919Z,99818.00
2023-08-29T06:09:45.460Z,99823.00
2023-08-29T06:12:12.150Z,99817.00
2023-08-29T06:14:38.706Z,99808.00
2023-08-29T06:17:05.671Z,99802.00
2023-08-29T06:19:32.183Z,99788.00
2023-08-29T06:21:58.724Z,99788.00
2023-08-29T06:24:25.509Z,99789.00
2023-08-29T06:26:52.076Z,99791.00
2023-08-29T06:29:18.613Z,99793.00
2023-08-29T06:31:45.143Z,99795.00
2023-08-29T06:34:11.821Z,99802.00
2023-08-29T06:36:38.376Z,99804.00
2023-08-29T06:39:05.991Z,99817.00
2023-08-29T06:41:32.865Z,99823.00
2023-08-29T06:43:59.465Z,99825.00
2023-08-29T06:46:26.049Z,99826.00
2023-08-29T06:48:52.683Z,99830.00
2023-08-29T06:51:19.315Z,99834.00
2023-08-29T06:53:45.883Z,99837.00
2023-08-29T06:56:12.417Z,99845.00
2023-08-29T06:58:39.553Z,99859.00
2023-08-29T07:01:06.171Z,99861.00
2023-08-29T07:03:32.998Z,99863.00
2023-08-29T07:06:00.465Z,99881.00
2023-08-29T07:08:27.036Z,99872.00
2023-08-29T07:10:53.596Z,99879.00
2023-08-29T07:13:20.184Z,99886.00
2023-08-29T07:15:47.084Z,99907.00
2023-08-29T07:18:14.229Z,99903.00
2023-08-29T07:20:41.258Z,99891.00
2023-08-29T07:23:07.840Z,99901.00
2023-08-29T07:25:43.362Z,99907.00
2023-08-29T07:28:10.627Z,99903.00
2023-08-29T07:30:48.709Z,99912.00
2023-08-29T07:33:15.748Z,99912.00
2023-08-29T07:35:43.570Z,99910.00
2023-08-29T07:38:10.822Z,99905.00
2023-08-29T07:40:37.679Z,99895.00
2023-08-29T07:43:06.790Z,99895.00
2023-08-29T07:45:34.466Z,99898.00
2023-08-29T07:48:01.527Z,99891.00
2023-08-29T07:50:29.109Z,99890.00
2023-08-29T07:52:55.929Z,99890.00
2023-08-29T07:55:22.489Z,99887.00
2023-08-29T07:57:49.476Z,99880.00
2023-08-29T08:00:16.680Z,99891.00
2023-08-29T08:02:43.595Z,99889.00
2023-08-29T08:05:17.095Z,99888.00
2023-08-29T08:07:45.166Z,99886.00
2023-08-29T08:10:13.527Z,99888.00
2023-08-29T08:12:41.457Z,99881.00
2023-08-29T08:15:09.445Z,99884.00
2023-08-29T08:17:36.882Z,99887.00
2023-08-29T08:20:08.186Z,99883.00
2023-08-29T08:22:42.045Z,99885.00
2023-08-29T08:25:11.036Z,99884.00
2023-08-29T08:27:37.681Z,99884.00
2023-08-29T08:30:08.709Z,99882.00
2023-08-29T08:32:35.451Z,99892.00
2023-08-29T08:35:03.343Z,99894.00
2023-08-29T08:37:31.006Z,99893.00
2023-08-29T08:39:57.589Z,99891.00
2023-08-29T08:42:24.177Z,99884.00
2023-08-29T08:44:50.827Z,99879.00
2023-08-29T08:47:17.608Z,99872.00
2023-08-29T08:49:44.672Z,99875.00
2023-08-29T08:52:12.138Z,99881.00
2023-08-29T08:54:39.807Z,99874.00
2023-08-29T08:57:06.716Z,99878.00
2023-08-29T08:59:33.236Z,99875.00
2023-08-29T09:02:00.060Z,99870.00
2023-08-29T09:04:26.747Z,99880.00
2023-08-29T09:06:53.373Z,99872.00
2023-08-29T09:09:21.298Z,99872.00
2023-08-29T09:11:57.940Z,99877.00
2023-08-29T09:14:25.988Z,99872.00
2023-08-29T09:17:00.468Z,99847.00
2023-08-29T09:19:30.314Z,99846.00
2023-08-29T09:21:57.104Z,99841.00
2023-08-29T09:24:34.965Z,99851.00
2023-08-29T09:27:06.248Z,99848.00
2023-08-29T09:29:32.996Z,99845.00
2023-08-29T09:31:59.965Z,99845.00
2023-08-29T09:34:31.218Z,99848.00
2023-08-29T09:36:58.445Z,99847.00
2023-08-29T09:39:25.360Z,99856.00
2023-08-29T09:42:04.434Z,99855.00
2023-08-29T09:44:38.213Z,99857.00
2023-08-29T09:47:06.331Z,99859.00
2023-08-29T09:49:43.737Z,99852.00
2023-08-29T09:52:11.237Z,99850.00
2023-08-29T09:54:43.675Z,99841.00
2023-08-29T09:57:11.865Z,99844.00
2023-08-29T09:59:40.600Z,99859.00
2023-08-29T10:02:10.664Z,99857.00
2023-08-29T10:04:40.385Z,99855.00
2023-08-29T10:07:07.163Z,99846.00
2023-08-29T10:09:33.912Z,99829.00
2023-08-29T10:12:01.252Z,99826.00
2023-08-29T10:14:29.889Z,99823.00
2023-08-29T10:16:59.779Z,99818.00
2023-08-29T10:19:28.731Z,99823.00
2023-08-29T10:21:55.567Z,99813.00
2023-08-29T10:24:23.200Z,99819.00
2023-08-29T10:26:50.888Z,99809.00
2023-08-29T10:29:18.210Z,99822.00
2023-08-29T10:31:45.732Z,99821.00
2023-08-29T10:34:13.111Z,99817.00
2023-08-29T10:36:40.320Z,99820.00
2023-08-29T10:39:10.587Z,99813.00
2023-08-29T10:41:54.244Z,99818.00
2023-08-29T10:44:36.336Z,99828.00
2023-08-29T10:47:27.649Z,99821.00
2023-08-29T10:50:07.372Z,99820.00
2023-08-29T10:52:43.237Z,99830.00
2023-08-29T10:55:20.047Z,99826.00
2023-08-29T10:57:47.275Z,99817.00
2023-08-29T11:00:19.383Z,99825.00
2023-08-29T11:02:46.036Z,99829.00
2023-08-29T11:05:13.616Z,99826.00
2023-08-29T11:07:40.233Z,99825.00
2023-08-29T11:10:19.035Z,99824.00
2023-08-29T11:13:07.928Z,99823.00
2023-08-29T11:16:03.889Z,99822.00
2023-08-29T11:18:31.959Z,99821.00
2023-08-29T11:21:09.965Z,99811.00
2023-08-29T11:27:49.471Z,99794.00
2023-08-29T11:30:28.062Z,99795.00
2023-08-29T11:32:57.992Z,99801.00
2023-08-29T11:35:24.766Z,99801.00
2023-08-29T11:37:51.346Z,99794.00
2023-08-29T11:40:26.253Z,99790.00
2023-08-29T11:43:43.775Z,99790.00
2023-08-29T11:45:48.583Z,99784.00
2023-08-29T11:48:24.846Z,99793.00
2023-08-29T11:50:55.654Z,99788.00
2023-08-29T11:53:23.637Z,99788.00
2023-08-29T11:55:51.122Z,99784.00
2023-08-29T11:58:17.654Z,99786.00
2023-08-29T12:00:44.302Z,99782.00
2023-08-29T12:03:11.390Z,99787.00
2023-08-29T12:05:40.009Z,99788.00
2023-08-29T12:08:06.759Z,99788.00
2023-08-29T12:10:33.423Z,99785.00
2023-08-29T12:13:12.405Z,99788.00
2023-08-29T12:15:43.817Z,99785.00
2023-08-29T12:18:21.681Z,99788.00
2023-08-29T12:20:48.852Z,99794.00
2023-08-29T12:23:25.760Z,99801.00
2023-08-29T12:25:52.389Z,99796.00
2023-08-29T12:28:18.936Z,99803.00
2023-08-29T12:30:45.510Z,99802.00
2023-08-29T12:33:12.127Z,99798.00
2023-08-29T12:35:40.031Z,99793.00
2023-08-29T12:38:07.680Z,99788.00
2023-08-29T12:40:34.633Z,99784.00
2023-08-29T12:43:01.193Z,99793.00
2023-08-29T12:45:27.740Z,99791.00
2023-08-29T12:47:55.460Z,99793.00
2023-08-29T12:50:22.119Z,99793.00
2023-08-29T12:52:48.855Z,99788.00
2023-08-29T12:55:15.475Z,99795.00
2023-08-29T12:58:36.880Z,99784.00
2023-08-29T13:01:03.454Z,99792.00
2023-08-29T13:03:30.133Z,99790.00
2023-08-29T13:05:56.670Z,99788.00
2023-08-29T13:08:23.401Z,99781.00
2023-08-29T13:10:50.078Z,99788.00
2023-08-29T13:13:17.361Z,99799.00
2023-08-29T13:15:57.607Z,99785.00
2023-08-29T13:18:24.324Z,99787.00
2023-08-29T13:20:50.892Z,99788.00
2023-08-29T13:23:17.715Z,99790.00
2023-08-29T13:25:44.628Z,99785.00
2023-08-29T13:28:11.245Z,99787.00
2023-08-29T13:30:38.270Z,99788.00
2023-08-29T13:33:05.151Z,99787.00
2023-08-29T13:35:31.783Z,99794.00
2023-08-29T13:37:58.319Z,99787.00
2023-08-29T13:40:24.837Z,99789.00
2023-08-29T13:42:53.240Z,99786.00
2023-08-29T13:45:20.031Z,99784.00
2023-08-29T13:47:47.909Z,99785.00
2023-08-29T13:50:14.481Z,99786.00
2023-08-29T13:52:41.072Z,99791.00
2023-08-29T13:55:07.999Z,99790.00
2023-08-29T13:57:34.585Z,99786.00
2023-08-29T14:00:01.177Z,99782.00
2023-08-29T14:02:27.924Z,99776.00
2023-08-29T14:09:14.450Z,99784.00
2023-08-29T14:11:40.992Z,99784.00
2023-08-29T14:14:07.554Z,99790.00
2023-08-29T14:16:34.087Z,99796.00
2023-08-29T14:19:00.727Z,99804.00
2023-08-29T14:21:27.237Z,99791.00
2023-08-29T14:23:53.778Z,99792.00
2023-08-29T14:26:20.390Z,99789.00
2023-08-29T14:28:46.998Z,99787.00
2023-08-29T14:31:13.631Z,99786.00
2023-08-29T14:33:40.231Z,99788.00
2023-08-29T14:36:06.857Z,99790.00
2023-08-29T14:38:33.474Z,99781.00
2023-08-29T14:41:08.547Z,99789.00
2023-08-29T14:43:38.140Z,99782.00
2023-08-29T14:46:06.036Z,99788.00
2023-08-29T14:48:34.713Z,99792.00
2023-08-29T14:55:13.070Z,99801.00
2023-08-29T14:57:39.614Z,99795.00
2023-08-29T15:00:06.969Z,99803.00
2023-08-29T15:02:33.730Z,99803.00
2023-08-29T15:05:00.409Z,99800.00
2023-08-29T15:07:32.683Z,99799.00
2023-08-29T15:10:09.032Z,99796.00
2023-08-29T15:12:35.935Z,99794.00
2023-08-29T15:15:02.603Z,99795.00
2023-08-29T15:17:30.967Z,99798.00
2023-08-29T15:19:57.953Z,99791.00
2023-08-29T15:22:30.445Z,99794.00
2023-08-29T15:25:01.029Z,99788.00
2023-08-29T15:27:27.557Z,99797.00
2023-08-29T15:29:57.133Z,99798.00
2023-08-29T15:32:26.601Z,99801.00
2023-08-29T15:34:53.519Z,99794.00
2023-08-29T15:37:20.111Z,99786.00
2023-08-29T15:43:48.511Z,99788.00
2023-08-29T15:46:19.166Z,99785.00
2023-08-29T15:48:46.051Z,99791.00
2023-08-29T15:51:14.491Z,99785.00
2023-08-29T15:53:42.447Z,99791.00
2023-08-29T15:56:11.587Z,99788.00
2023-08-29T15:58:38.216Z,99791.00
2023-08-29T16:01:08.390Z,99792.00
2023-08-29T16:03:39.934Z,99788.00
2023-08-29T16:06:09.393Z,99791.00
2023-08-29T16:08:36.110Z,99785.00
2023-08-29T16:11:02.889Z,99790.00
2023-08-29T16:13:29.487Z,99792.00
2023-08-29T16:15:57.204Z,99792.00
2023-08-29T16:18:24.445Z,99783.00
2023-08-29T16:20:54.504Z,99791.00
2023-08-29T16:23:21.106Z,99796.00
2023-08-29T16:25:50.133Z,99788.00
2023-08-29T16:32:09.890Z,99792.00
2023-08-29T16:34:36.463Z,99798.00
2023-08-29T16:37:03.967Z,99795.00
2023-08-29T16:39:32.499Z,99787.00
2023-08-29T16:42:00.596Z,99788.00
2023-08-29T16:44:27.130Z,99793.00
2023-08-29T16:46:53.842Z,99793.00
2023-08-29T16:49:20.690Z,99799.00
2023-08-29T16:51:47.303Z,99800.00
2023-08-29T16:54:14.801Z,99788.00
2023-08-29T16:56:41.439Z,99782.00
2023-08-29T16:59:08.117Z,99788.00
2023-08-29T17:01:34.791Z,99789.00
2023-08-29T17:04:01.487Z,99787.00
2023-08-29T17:06:28.087Z,99790.00
2023-08-29T17:08:56.219Z,99781.00
2023-08-29T17:11:23.252Z,99786.00
2023-08-29T17:13:49.802Z,99787.00
2023-08-29T17:38:57.535Z,99781.00
2023-08-29T17:41:27.022Z,99782.00
2023-08-29T17:43:53.590Z,99787.00
2023-08-29T17:46:20.777Z,99783.00
2023-08-29T17:48:47.735Z,99797.00
2023-08-29T17:51:14.526Z,99792.00
2023-08-29T17:53:41.051Z,99799.00
2023-08-29T17:56:07.897Z,99797.00
2023-08-29T17:58:36.167Z,99806.00
2023-08-29T18:01:34.169Z,99799.00
2023-08-29T18:04:00.827Z,99791.00
2023-08-29T18:06:27.400Z,99794.00
2023-08-29T18:08:55.963Z,99788.00
2023-08-29T18:11:22.830Z,99786.00
2023-08-29T18:13:49.547Z,99789.00
2023-08-29T18:16:16.384Z,99798.00
2023-08-29T18:18:42.945Z,99799.00
2023-08-29T18:21:11.662Z,99807.00
2023-08-29T18:23:38.286Z,99809.00
2023-08-29T18:26:06.826Z,99807.00
2023-08-29T18:28:34.430Z,99801.00
2023-08-29T18:31:02.151Z,99799.00
2023-08-29T18:33:29.016Z,99801.00
2023-08-29T18:35:55.583Z,99808.00
2023-08-29T18:38:22.831Z,99819.00
2023-08-29T18:40:49.456Z,99808.00
2023-08-29T18:43:16.588Z,99811.00
2023-08-29T18:49:55.192Z,99824.00
2023-08-29T18:52:22.921Z,99825.00
2023-08-29T18:54:49.545Z,99825.00
2023-08-29T18:57:16.291Z,99820.00
2023-08-29T18:59:43.147Z,99820.00
2023-08-29T19:02:09.686Z,99822.00
2023-08-29T19:04:36.426Z,99826.00
2023-08-29T19:07:03.369Z,99830.00
2023-08-29T19:09:30.127Z,99830.00
2023-08-29T19:11:56.889Z,99835.00
2023-08-29T19:14:23.759Z,99840.00
2023-08-29T19:16:50.420Z,99842.00
2023-08-29T19:19:17.033Z,99847.00
2023-08-29T19:21:43.850Z,99843.00
2023-08-29T19:24:10.399Z,99835.00
2023-08-29T19:26:37.372Z,99846.00
2023-08-29T19:29:04.644Z,99839.00
2023-08-29T19:31:31.363Z,99834.00
2023-08-29T19:33:57.904Z,99839.00
2023-08-29T19:36:24.478Z,99832.00
2023-08-29T19:38:51.894Z,99830.00
2023-08-29T19:41:21.473Z,99830.00
2023-08-29T19:43:48.081Z,99831.00
2023-08-29T19:46:14.736Z,99819.00
2023-08-29T19:48:41.332Z,99826.00
2023-08-29T19:51:07.920Z,99823.00
2023-08-29T19:53:36.628Z,99813.00
2023-08-29T19:56:05.176Z,99818.00
2023-08-29T19:58:31.850Z,99821.00
2023-08-29T20:01:06.072Z,99822.00
2023-08-29T20:03:32.622Z,99822.00
2023-08-29T20:05:59.215Z,99823.00
2023-08-29T20:08:25.702Z,99819.00
2023-08-29T20:10:52.282Z,99809.00
2023-08-29T20:13:18.964Z,99818.00
2023-08-29T20:15:46.046Z,99817.00
2023-08-29T20:18:13.685Z,99825.00
2023-08-29T20:20:41.597Z,99821.00
2023-08-29T20:23:12.730Z,99829.00
2023-08-29T20:25:39.772Z,99825.00
2023-08-29T20:28:07.750Z,99812.00
2023-08-29T20:30:35.518Z,99825.00
2023-08-29T20:33:02.262Z,99819.00
2023-08-29T20:35:29.266Z,99826.00
2023-08-29T20:37:59.118Z,99821.00
2023-08-29T20:40:25.904Z,99820.00
2023-08-29T20:42:52.971Z,99820.00
2023-08-29T20:45:21.726Z,99809.00
2023-08-29T20:47:50.911Z,99806.00
2023-08-29T20:50:18.070Z,99812.00
2023-08-29T20:52:44.717Z,99819.00
2023-08-29T20:55:14.928Z,99820.00
2023-08-29T20:57:46.766Z,99810.00
2023-08-29T21:00:13.666Z,99798.00
2023-08-29T21:02:40.508Z,99801.00
2023-08-29T21:05:07.619Z,99797.00
2023-08-29T21:07:34.177Z,99788.00
2023-08-29T21:10:03.905Z,99787.00
2023-08-29T21:12:31.156Z,99788.00
2023-08-29T21:14:57.745Z,99786.00
2023-08-29T21:17:26.540Z,99789.00
2023-08-29T21:19:53.145Z,99788.00
2023-08-29T21:22:19.685Z,99784.00
2023-08-29T21:24:46.225Z,99786.00
2023-08-29T21:27:12.832Z,99776.00
2023-08-29T21:29:39.426Z,99768.00
2023-08-29T21:32:06.174Z,99776.00
2023-08-29T21:34:32.841Z,99768.00
2023-08-29T21:36:59.374Z,99763.00
2023-08-29T21:39:26.076Z,99780.00
2023-08-29T21:41:52.966Z,99784.00
2023-08-29T21:44:19.468Z,99782.00
2023-08-29T21:46:46.045Z,99788.00
2023-08-29T21:49:12.618Z,99786.00
2023-08-29T21:51:39.206Z,99792.00
2023-08-29T21:54:05.862Z,99786.00
2023-08-29T21:56:32.444Z,99788.00
2023-08-29T21:58:59.093Z,99776.00
2023-08-29T22:01:25.721Z,99766.00
2023-08-29T22:03:52.361Z,99772.00
2023-08-29T22:06:19.048Z,99770.00
2023-08-29T22:08:45.828Z,99776.00
2023-08-29T22:11:12.318Z,99769.00
2023-08-29T22:13:39.479Z,99770.00
2023-08-29T22:16:06.092Z,99769.00
2023-08-29T22:18:35.436Z,99773.00
2023-08-29T22:21:03.881Z,99763.00
2023-08-29T22:23:31.932Z,99764.00
2023-08-29T22:25:58.504Z,99760.00
2023-08-29T22:28:25.550Z,99765.00
2023-08-29T22:30:52.206Z,99767.00
2023-08-29T22:33:18.750Z,99764.00
2023-08-29T22:35:48.649Z,99771.00
2023-08-29T22:38:15.649Z,99762.00
2023-08-29T22:40:42.304Z,99767.00
2023-08-29T22:43:08.903Z,99770.00
2023-08-29T22:45:35.526Z,99755.00
2023-08-29T22:48:02.241Z,99755.00
2023-08-29T22:50:28.843Z,99764.00
2023-08-29T22:52:55.465Z,99755.00
2023-08-29T22:55:24.434Z,99762.00
2023-08-29T22:57:52.599Z,99760.00
2023-08-29T23:00:19.388Z,99764.00
2023-08-29T23:02:46.003Z,99757.00
2023-08-29T23:05:12.700Z,99755.00
2023-08-29T23:07:40.184Z,99767.00
2023-08-29T23:10:07.197Z,99762.00
2023-08-29T23:12:34.137Z,99761.00
2023-08-29T23:15:00.719Z,99758.00
2023-08-29T23:17:27.309Z,99763.00
2023-08-29T23:19:53.877Z,99753.00
2023-08-29T23:22:20.399Z,99758.00
2023-08-29T23:24:47.025Z,99751.00
2023-08-29T23:27:13.839Z,99742.00
2023-08-29T23:29:40.381Z,99744.00
2023-08-29T23:32:07.355Z,99741.00
2023-08-29T23:34:33.998Z,99742.00
2023-08-29T23:37:00.509Z,99733.00
2023-08-29T23:39:27.065Z,99735.00
2023-08-29T23:41:53.757Z,99731.00
2023-08-29T23:44:20.344Z,99731.00
2023-08-29T23:46:46.918Z,99726.00
2023-08-29T23:49:13.717Z,99718.00
2023-08-29T23:51:40.244Z,99713.00
2023-08-29T23:54:07.014Z,99710.00
2023-08-29T23:56:33.659Z,99698.00
2023-08-29T23:59:00.212Z,99703.00
